createdAt,value
2022-11-30T00:01:24.878Z,40.28
2022-11-30T00:03:56.711Z,39.33
2022-11-30T00:06:24.957Z,38.25
2022-11-30T00:08:57.277Z,37.28
2022-11-30T00:11:26.859Z,44.20
2022-11-30T00:13:53.840Z,39.35
2022-11-30T00:16:21.098Z,38.75
2022-11-30T00:18:48.140Z,41.38
2022-11-30T00:21:16.146Z,43.30
2022-11-30T00:23:46.158Z,42.83
2022-11-30T00:26:17.302Z,41.03
2022-11-30T00:28:48.156Z,41.72
2022-11-30T00:31:18.469Z,41.58
2022-11-30T00:33:45.593Z,41.28
2022-11-30T00:36:15.868Z,37.20
2022-11-30T00:38:43.356Z,40.28
2022-11-30T00:41:11.046Z,37.50
2022-11-30T00:43:37.936Z,39.67
2022-11-30T00:46:05.466Z,41.45
2022-11-30T00:48:32.251Z,39.70
2022-11-30T00:50:59.063Z,40.63
2022-11-30T00:53:25.888Z,40.38
2022-11-30T00:55:52.663Z,39.78
2022-11-30T00:58:20.017Z,37.47
2022-11-30T01:00:47.147Z,44.05
2022-11-30T01:03:14.955Z,40.03
2022-11-30T01:05:43.285Z,38.92
2022-11-30T01:08:11.966Z,43.30
2022-11-30T01:10:41.579Z,42.75
2022-11-30T01:13:09.152Z,43.78
2022-11-30T01:15:39.032Z,41.08
2022-11-30T01:18:06.312Z,40.00
2022-11-30T01:20:33.406Z,39.42
2022-11-30T01:23:00.250Z,40.47
2022-11-30T01:25:26.993Z,41.83
2022-11-30T01:27:53.726Z,41.70
2022-11-30T01:30:20.532Z,40.30
2022-11-30T01:32:47.319Z,39.17
2022-11-30T01:35:14.201Z,39.30
2022-11-30T01:37:40.969Z,38.95
2022-11-30T01:40:08.797Z,44.33
2022-11-30T01:42:37.874Z,43.28
2022-11-30T01:45:07.350Z,42.13
2022-11-30T01:47:39.764Z,40.78
2022-11-30T01:50:27.744Z,45.65
2022-11-30T01:52:57.691Z,42.78
2022-11-30T01:55:37.389Z,39.20
2022-11-30T01:58:10.249Z,43.58
2022-11-30T02:00:37.143Z,44.45
2022-11-30T02:03:34.405Z,41.53
2022-11-30T02:06:01.482Z,42.95
2022-11-30T02:08:30.931Z,43.65
2022-11-30T02:11:05.537Z,42.83
2022-11-30T02:14:04.337Z,41.30
2022-11-30T02:17:09.493Z,40.97
2022-11-30T02:20:13.078Z,43.78
2022-11-30T02:23:27.930Z,41.97
2022-11-30T02:26:22.516Z,41.80
2022-11-30T02:29:20.492Z,42.65
2022-11-30T02:32:18.483Z,40.00
2022-11-30T02:34:49.098Z,41.38
2022-11-30T02:37:18.034Z,42.65
2022-11-30T02:39:44.880Z,42.78
2022-11-30T02:42:13.971Z,39.92
2022-11-30T02:44:49.183Z,40.45
2022-11-30T02:47:40.834Z,42.83
2022-11-30T02:50:40.690Z,43.75
2022-11-30T02:53:10.175Z,42.78
2022-11-30T02:55:37.193Z,43.83
2022-11-30T02:58:03.936Z,41.53
2022-11-30T03:00:30.813Z,43.08
2022-11-30T03:02:57.831Z,43.40
2022-11-30T03:05:24.904Z,44.05
2022-11-30T03:07:51.674Z,45.10
2022-11-30T03:10:18.501Z,45.90
2022-11-30T03:12:45.251Z,44.58
2022-11-30T03:15:11.994Z,40.20
2022-11-30T03:17:38.710Z,46.30
2022-11-30T03:20:06.512Z,41.22
2022-11-30T03:22:33.321Z,39.97
2022-11-30T03:25:00.232Z,40.97
2022-11-30T03:27:27.190Z,43.70
2022-11-30T03:29:54.110Z,43.58
2022-11-30T03:32:20.883Z,43.50
2022-11-30T03:34:47.854Z,45.42
2022-11-30T03:37:14.753Z,44.42
2022-11-30T03:39:41.453Z,42.55
2022-11-30T03:42:08.215Z,44.28
2022-11-30T03:44:34.991Z,45.05
2022-11-30T03:47:01.941Z,43.60
2022-11-30T03:49:28.711Z,41.58
2022-11-30T03:51:56.014Z,43.45
2022-11-30T03:54:22.764Z,45.67
2022-11-30T03:56:49.567Z,42.78
2022-11-30T03:59:16.462Z,43.92
2022-11-30T04:01:43.365Z,40.70
2022-11-30T04:04:12.239Z,42.92
2022-11-30T04:06:40.563Z,42.58
2022-11-30T04:09:07.449Z,44.13
2022-11-30T04:11:35.852Z,44.85
2022-11-30T04:14:02.600Z,49.63
2022-11-30T04:16:29.607Z,44.60
2022-11-30T04:18:56.444Z,43.67
2022-11-30T04:21:23.196Z,47.47
2022-11-30T04:23:50.116Z,46.40
2022-11-30T04:26:17.678Z,42.05
2022-11-30T04:28:44.791Z,46.08
2022-11-30T04:31:12.425Z,43.55
2022-11-30T04:33:39.607Z,43.90
2022-11-30T04:36:08.246Z,47.42
2022-11-30T04:38:37.065Z,43.22
2022-11-30T04:41:08.854Z,44.95
2022-11-30T04:43:35.937Z,43.80
2022-11-30T04:46:03.518Z,44.10
2022-11-30T04:48:30.393Z,43.35
2022-11-30T04:51:08.819Z,45.15
2022-11-30T04:53:38.116Z,44.42
2022-11-30T04:56:10.625Z,48.65
2022-11-30T04:58:38.957Z,46.72
2022-11-30T05:01:06.156Z,47.28
2022-11-30T05:03:32.897Z,50.50
2022-11-30T05:05:59.627Z,44.45
2022-11-30T05:08:26.388Z,44.95
2022-11-30T05:10:54.782Z,44.03
2022-11-30T05:13:24.626Z,48.08
2022-11-30T05:15:53.605Z,46.00
2022-11-30T05:18:20.446Z,44.00
2022-11-30T05:20:51.686Z,47.08
2022-11-30T05:23:19.655Z,46.50
2022-11-30T05:25:47.132Z,48.40
2022-11-30T05:28:14.336Z,46.33
2022-11-30T05:30:43.493Z,48.10
2022-11-30T05:33:10.371Z,51.58
2022-11-30T05:35:37.879Z,50.60
2022-11-30T05:38:05.038Z,49.70
2022-11-30T05:40:33.512Z,48.33
2022-11-30T05:43:01.905Z,51.05
2022-11-30T05:45:29.267Z,46.97
2022-11-30T05:47:56.005Z,49.40
2022-11-30T05:50:22.842Z,49.88
2022-11-30T05:52:49.590Z,46.78
2022-11-30T05:55:16.374Z,48.08
2022-11-30T05:57:43.142Z,47.25
2022-11-30T06:00:10.587Z,49.30
2022-11-30T06:02:37.505Z,49.67
2022-11-30T06:05:04.713Z,45.17
2022-11-30T06:07:31.574Z,43.92
2022-11-30T06:09:58.343Z,46.45
2022-11-30T06:12:26.178Z,47.63
2022-11-30T06:14:52.977Z,47.42
2022-11-30T06:17:20.212Z,42.45
2022-11-30T06:19:47.022Z,42.35
2022-11-30T06:22:13.821Z,44.83
2022-11-30T06:24:40.579Z,44.28
2022-11-30T06:27:07.346Z,45.08
2022-11-30T06:29:34.092Z,44.53
2022-11-30T06:32:00.882Z,46.80
2022-11-30T06:34:27.700Z,44.33
2022-11-30T06:36:54.516Z,43.47
2022-11-30T06:39:42.956Z,43.00
2022-11-30T06:42:08.058Z,46.00
2022-11-30T06:44:34.805Z,41.85
2022-11-30T06:47:01.513Z,44.50
2022-11-30T06:49:28.285Z,44.92
2022-11-30T06:51:55.015Z,47.97
2022-11-30T06:54:21.806Z,52.03
2022-11-30T06:56:48.801Z,46.10
2022-11-30T06:59:15.514Z,44.95
2022-11-30T07:01:42.248Z,43.42
2022-11-30T07:04:09.413Z,50.95
2022-11-30T07:06:36.791Z,44.80
2022-11-30T07:09:03.756Z,49.15
2022-11-30T07:11:32.067Z,46.63
2022-11-30T07:13:58.780Z,43.47
2022-11-30T07:16:25.540Z,44.53
2022-11-30T07:18:52.285Z,43.42
2022-11-30T07:21:19.034Z,47.85
2022-11-30T07:24:04.196Z,48.50
2022-11-30T07:26:30.989Z,44.50
2022-11-30T07:29:00.290Z,46.03
2022-11-30T07:31:34.594Z,44.72
2022-11-30T07:34:07.931Z,44.67
2022-11-30T07:36:36.361Z,45.00
2022-11-30T07:39:04.190Z,43.10
2022-11-30T07:41:30.966Z,41.85
2022-11-30T07:43:57.956Z,42.95
2022-11-30T07:46:24.732Z,44.17
2022-11-30T07:48:51.489Z,44.42
2022-11-30T07:51:21.988Z,47.47
2022-11-30T07:53:49.330Z,45.95
2022-11-30T07:56:19.693Z,43.63
2022-11-30T07:58:47.570Z,45.58
2022-11-30T08:01:17.700Z,43.17
2022-11-30T08:03:44.782Z,43.65
2022-11-30T08:06:15.950Z,41.88
2022-11-30T08:08:45.435Z,44.90
2022-11-30T08:11:16.281Z,48.40
2022-11-30T08:13:44.164Z,50.97
2022-11-30T08:16:15.007Z,42.00
2022-11-30T08:18:42.615Z,44.63
2022-11-30T08:21:12.716Z,48.33
2022-11-30T08:23:43.307Z,46.22
2022-11-30T08:26:26.061Z,42.78
2022-11-30T08:28:56.128Z,44.08
2022-11-30T08:31:34.141Z,44.53
2022-11-30T08:34:08.190Z,43.50
2022-11-30T08:39:05.503Z,41.22
2022-11-30T08:41:34.801Z,44.10
2022-11-30T08:44:02.044Z,39.40
2022-11-30T08:49:24.171Z,42.53
2022-11-30T08:54:47.787Z,39.95
2022-11-30T08:57:21.044Z,41.15
2022-11-30T08:59:48.462Z,45.97
2022-11-30T09:02:18.645Z,41.65
2022-11-30T09:05:09.409Z,44.67
2022-11-30T09:07:35.727Z,42.30
2022-11-30T09:10:02.543Z,44.20
2022-11-30T09:12:29.270Z,42.03
2022-11-30T09:14:58.325Z,44.05
2022-11-30T09:17:26.014Z,42.15
2022-11-30T09:19:54.909Z,43.65
2022-11-30T09:22:21.807Z,43.65
2022-11-30T09:24:48.902Z,45.55
2022-11-30T09:27:15.914Z,44.10
2022-11-30T09:29:42.751Z,40.00
2022-11-30T09:32:09.565Z,48.00
2022-11-30T09:34:36.364Z,42.72
2022-11-30T09:37:03.459Z,40.47
2022-11-30T09:39:30.236Z,47.47
2022-11-30T09:42:32.904Z,48.70
2022-11-30T09:45:19.854Z,46.85
2022-11-30T09:48:18.127Z,41.25
2022-11-30T09:50:47.456Z,46.30
2022-11-30T09:53:40.222Z,43.78
2022-11-30T09:56:24.271Z,43.15
2022-11-30T09:58:59.941Z,38.70
2022-11-30T10:01:30.644Z,45.08
2022-11-30T10:03:59.736Z,41.30
2022-11-30T10:07:05.782Z,46.45
2022-11-30T10:10:39.576Z,41.28
2022-11-30T10:13:35.087Z,42.78
2022-11-30T10:16:21.634Z,41.75
2022-11-30T10:19:33.065Z,39.10
2022-11-30T10:22:17.650Z,39.20
2022-11-30T10:25:16.208Z,36.15
2022-11-30T10:28:18.080Z,41.13
2022-11-30T10:30:50.201Z,39.42
2022-11-30T10:33:24.117Z,41.28
2022-11-30T10:36:08.576Z,42.28
2022-11-30T10:38:49.486Z,40.03
2022-11-30T10:41:25.854Z,43.72
2022-11-30T10:44:06.766Z,40.03
2022-11-30T10:46:43.282Z,43.63
2022-11-30T10:49:18.656Z,44.03
2022-11-30T10:51:52.514Z,43.97
2022-11-30T10:54:22.466Z,42.28
2022-11-30T10:56:49.532Z,45.45
2022-11-30T10:59:25.981Z,46.75
2022-11-30T11:01:53.482Z,41.67
2022-11-30T11:04:27.583Z,43.05
2022-11-30T11:06:59.385Z,41.55
2022-11-30T11:09:48.928Z,42.03
2022-11-30T11:12:25.514Z,40.35
2022-11-30T11:15:18.329Z,39.38
2022-11-30T11:17:45.436Z,43.58
2022-11-30T11:20:32.076Z,46.30
2022-11-30T11:22:59.011Z,42.67
2022-11-30T11:25:35.349Z,42.55
2022-11-30T11:28:14.184Z,44.80
2022-11-30T11:30:41.718Z,44.67
2022-11-30T11:33:11.783Z,39.08
2022-11-30T11:36:06.938Z,44.13
2022-11-30T11:38:51.085Z,43.00
2022-11-30T11:41:31.412Z,45.30
2022-11-30T11:44:22.045Z,42.25
2022-11-30T11:47:06.178Z,39.78
2022-11-30T11:49:36.818Z,39.08
2022-11-30T11:52:18.038Z,39.33
2022-11-30T11:54:56.535Z,40.85
2022-11-30T11:57:39.941Z,42.28
2022-11-30T12:00:16.960Z,40.97
2022-11-30T12:03:18.078Z,39.30
2022-11-30T12:05:51.665Z,40.97
2022-11-30T12:08:57.815Z,43.30
2022-11-30T12:11:44.128Z,39.65
2022-11-30T12:14:18.011Z,38.72
2022-11-30T12:17:17.881Z,38.35
2022-11-30T12:20:19.010Z,40.38
2022-11-30T12:23:21.349Z,41.60
2022-11-30T12:26:06.796Z,40.78
2022-11-30T12:28:57.590Z,47.10
2022-11-30T12:31:52.764Z,43.45
2022-11-30T12:34:56.908Z,45.33
2022-11-30T12:37:45.941Z,45.17
2022-11-30T12:41:01.012Z,45.78
2022-11-30T12:44:15.845Z,44.92
2022-11-30T12:47:26.548Z,48.50
2022-11-30T12:50:22.859Z,51.90
2022-11-30T12:53:37.197Z,50.03
2022-11-30T12:56:48.720Z,52.20
2022-11-30T12:59:45.955Z,48.15
2022-11-30T13:02:36.244Z,47.22
2022-11-30T13:05:09.309Z,51.20
2022-11-30T13:08:08.012Z,47.60
2022-11-30T13:11:06.133Z,50.40
2022-11-30T13:13:36.115Z,50.60
2022-11-30T13:16:08.511Z,52.20
2022-11-30T13:18:37.342Z,45.67
2022-11-30T13:21:41.008Z,49.67
2022-11-30T13:24:29.449Z,53.63
2022-11-30T13:27:24.452Z,46.88
2022-11-30T13:29:58.356Z,52.58
2022-11-30T13:32:56.793Z,53.00
2022-11-30T13:35:30.668Z,51.05
2022-11-30T13:41:07.376Z,47.42
2022-11-30T13:43:43.843Z,54.85
2022-11-30T13:46:23.607Z,50.13
2022-11-30T13:49:33.307Z,54.42
2022-11-30T13:54:50.676Z,53.78
2022-11-30T13:57:29.779Z,55.15
2022-11-30T14:00:02.319Z,55.63
2022-11-30T14:02:36.549Z,56.40
2022-11-30T14:05:18.688Z,59.40
2022-11-30T14:08:24.845Z,56.63
2022-11-30T14:10:54.913Z,62.90
2022-11-30T14:13:26.869Z,59.35
2022-11-30T14:15:59.770Z,58.85
2022-11-30T14:18:40.548Z,58.55
2022-11-30T14:21:31.869Z,61.05
2022-11-30T14:24:18.124Z,62.05
2022-11-30T14:26:48.433Z,64.57
2022-11-30T14:29:23.779Z,62.10
2022-11-30T14:32:01.347Z,62.30
2022-11-30T14:34:38.710Z,63.17
2022-11-30T14:37:20.227Z,63.38
2022-11-30T14:39:48.425Z,62.88
2022-11-30T14:42:28.283Z,65.93
2022-11-30T14:44:56.375Z,68.93
2022-11-30T14:47:29.809Z,69.05
2022-11-30T14:50:01.922Z,64.93
2022-11-30T14:53:24.864Z,69.00
2022-11-30T14:56:48.068Z,61.15
2022-11-30T14:59:45.588Z,63.88
2022-11-30T15:02:37.410Z,67.93
2022-11-30T15:05:08.605Z,61.83
2022-11-30T15:07:36.817Z,66.38
2022-11-30T15:10:16.279Z,60.05
2022-11-30T15:12:45.276Z,59.33
2022-11-30T15:15:26.438Z,65.13
2022-11-30T15:18:22.301Z,64.13
2022-11-30T15:21:03.565Z,63.80
2022-11-30T15:23:30.396Z,60.97
2022-11-30T15:26:11.409Z,61.33
2022-11-30T15:28:43.729Z,60.80
2022-11-30T15:31:16.490Z,64.47
2022-11-30T15:33:52.213Z,60.95
2022-11-30T15:36:32.549Z,60.65
2022-11-30T15:39:06.524Z,61.70
2022-11-30T15:41:35.216Z,57.25
2022-11-30T15:44:02.442Z,59.92
2022-11-30T15:46:46.109Z,56.20
2022-11-30T15:49:25.217Z,62.30
2022-11-30T15:52:29.260Z,58.85
2022-11-30T15:54:59.714Z,56.93
2022-11-30T15:57:57.123Z,64.30
2022-11-30T16:00:24.922Z,58.58
2022-11-30T16:03:12.775Z,60.70
2022-11-30T16:05:40.488Z,61.90
2022-11-30T16:08:17.964Z,59.60
2022-11-30T16:10:45.064Z,64.13
2022-11-30T16:13:15.835Z,65.38
2022-11-30T16:15:50.296Z,59.90
2022-11-30T16:18:23.565Z,59.50
2022-11-30T16:20:54.375Z,62.30
2022-11-30T16:23:21.540Z,60.17
2022-11-30T16:25:50.109Z,65.93
2022-11-30T16:28:18.903Z,59.45
2022-11-30T16:30:46.829Z,62.92
2022-11-30T16:33:21.428Z,58.53
2022-11-30T16:35:58.070Z,62.47
2022-11-30T16:38:26.383Z,62.20
2022-11-30T16:40:55.643Z,58.25
2022-11-30T16:43:25.766Z,57.80
2022-11-30T16:45:52.634Z,60.22
2022-11-30T16:48:19.965Z,60.13
2022-11-30T16:50:46.984Z,61.35
2022-11-30T16:53:17.325Z,55.83
2022-11-30T16:55:44.725Z,60.67
2022-11-30T16:58:11.645Z,59.08
2022-11-30T17:00:40.697Z,60.20
2022-11-30T17:03:28.375Z,57.13
2022-11-30T17:05:55.141Z,63.33
2022-11-30T17:08:22.355Z,61.90
2022-11-30T17:10:54.486Z,67.13
2022-11-30T17:13:21.814Z,62.25
2022-11-30T17:15:48.673Z,63.90
2022-11-30T17:18:15.439Z,59.28
2022-11-30T17:20:42.544Z,61.30
2022-11-30T17:23:09.604Z,61.45
2022-11-30T17:25:36.590Z,64.57
2022-11-30T17:28:03.687Z,66.97
2022-11-30T17:30:30.481Z,59.60
2022-11-30T17:32:57.452Z,59.83
2022-11-30T17:35:24.375Z,56.47
2022-11-30T17:37:54.497Z,58.10
2022-11-30T17:40:22.133Z,56.78
2022-11-30T17:42:49.072Z,59.65
2022-11-30T17:45:16.027Z,58.95
2022-11-30T17:47:42.790Z,62.35
2022-11-30T17:50:10.064Z,60.65
2022-11-30T17:52:36.812Z,58.47
2022-11-30T17:55:03.787Z,63.55
2022-11-30T17:57:30.570Z,60.63
2022-11-30T17:59:57.292Z,62.00
2022-11-30T18:02:24.191Z,60.72
2022-11-30T18:04:52.582Z,58.22
2022-11-30T18:07:20.051Z,64.07
2022-11-30T18:09:47.012Z,64.57
2022-11-30T18:12:13.762Z,61.15
2022-11-30T18:14:40.476Z,64.40
2022-11-30T18:17:07.338Z,56.65
2022-11-30T18:19:34.073Z,62.88
2022-11-30T18:22:00.812Z,60.00
2022-11-30T18:24:27.605Z,58.13
2022-11-30T18:26:54.355Z,60.28
2022-11-30T18:29:21.084Z,57.28
2022-11-30T18:31:51.342Z,57.83
2022-11-30T18:34:18.316Z,58.20
2022-11-30T18:36:45.082Z,58.42
2022-11-30T18:39:11.878Z,56.15
2022-11-30T18:41:38.778Z,61.83
2022-11-30T18:44:05.797Z,54.80
2022-11-30T18:46:33.783Z,55.70
2022-11-30T18:49:01.633Z,57.72
2022-11-30T18:51:30.620Z,57.13
2022-11-30T18:54:01.012Z,54.55
2022-11-30T18:56:32.121Z,55.15
2022-11-30T18:59:13.111Z,55.97
2022-11-30T19:01:40.584Z,58.30
2022-11-30T19:04:10.355Z,53.58
2022-11-30T19:06:39.904Z,56.20
2022-11-30T19:09:13.419Z,57.33
2022-11-30T19:11:41.252Z,54.22
2022-11-30T19:14:08.917Z,59.20
2022-11-30T19:16:36.173Z,54.17
2022-11-30T19:19:06.890Z,55.17
2022-11-30T19:21:34.375Z,57.67
2022-11-30T19:24:01.840Z,53.35
2022-11-30T19:26:28.877Z,62.72
2022-11-30T19:28:57.874Z,60.80
2022-11-30T19:31:25.323Z,56.88
2022-11-30T19:33:55.065Z,59.03
2022-11-30T19:36:30.414Z,57.22
2022-11-30T19:38:59.832Z,61.40
2022-11-30T19:41:28.068Z,62.00
2022-11-30T19:44:02.811Z,66.47
2022-11-30T19:46:31.688Z,57.40
2022-11-30T19:49:01.247Z,60.15
2022-11-30T19:51:29.971Z,56.13
2022-11-30T19:53:58.496Z,61.88
2022-11-30T19:56:26.358Z,61.58
2022-11-30T19:58:53.620Z,58.90
2022-11-30T20:01:24.417Z,61.00
2022-11-30T20:03:54.180Z,59.72
2022-11-30T20:06:25.471Z,59.80
2022-11-30T20:08:52.407Z,54.75
2022-11-30T20:11:19.240Z,51.15
2022-11-30T20:13:46.030Z,52.28
2022-11-30T20:16:15.988Z,51.45
2022-11-30T20:18:46.555Z,52.97
2022-11-30T20:21:18.171Z,60.17
2022-11-30T20:23:47.378Z,54.65
2022-11-30T20:26:14.091Z,58.92
2022-11-30T20:28:40.937Z,57.80
2022-11-30T20:31:10.567Z,54.83
2022-11-30T20:33:38.017Z,58.55
2022-11-30T20:36:07.836Z,57.78
2022-11-30T20:38:35.126Z,56.95
2022-11-30T20:41:02.270Z,58.80
2022-11-30T20:43:29.498Z,58.05
2022-11-30T20:45:56.654Z,59.55
2022-11-30T20:48:23.439Z,52.22
2022-11-30T20:51:14.058Z,55.88
2022-11-30T20:53:37.010Z,56.17
2022-11-30T20:56:04.085Z,54.22
2022-11-30T20:58:31.087Z,51.17
2022-11-30T21:01:00.143Z,53.47
2022-11-30T21:03:28.084Z,50.88
2022-11-30T21:05:54.995Z,49.67
2022-11-30T21:08:21.740Z,49.40
2022-11-30T21:10:48.506Z,56.67
2022-11-30T21:13:15.305Z,52.00
2022-11-30T21:15:42.078Z,51.05
2022-11-30T21:18:08.909Z,45.85
2022-11-30T21:20:35.645Z,46.13
2022-11-30T21:23:02.409Z,52.85
2022-11-30T21:25:29.200Z,55.83
2022-11-30T21:27:56.183Z,50.17
2022-11-30T21:30:22.949Z,56.22
2022-11-30T21:32:49.724Z,50.92
2022-11-30T21:35:16.546Z,52.67
2022-11-30T21:37:43.309Z,52.50
2022-11-30T21:40:10.931Z,57.40
2022-11-30T21:42:37.696Z,58.35
2022-11-30T21:45:04.849Z,59.00
2022-11-30T21:47:32.942Z,60.35
2022-11-30T21:49:59.712Z,59.10
2022-11-30T21:52:26.741Z,55.33
2022-11-30T21:54:53.868Z,54.40
2022-11-30T21:57:22.106Z,57.20
2022-11-30T21:59:49.188Z,52.28
2022-11-30T22:02:16.828Z,52.50
2022-11-30T22:04:43.750Z,52.42
2022-11-30T22:07:12.927Z,57.75
2022-11-30T22:09:39.706Z,54.03
2022-11-30T22:12:06.700Z,57.83
2022-11-30T22:14:36.129Z,50.78
2022-11-30T22:17:02.929Z,53.58
2022-11-30T22:19:29.856Z,52.17
2022-11-30T22:21:56.641Z,55.97
2022-11-30T22:24:23.389Z,55.53
2022-11-30T22:26:50.158Z,56.15
2022-11-30T22:29:22.145Z,51.08
2022-11-30T22:31:52.828Z,51.42
2022-11-30T22:34:21.032Z,47.67
2022-11-30T22:36:48.555Z,42.85
2022-11-30T22:39:19.592Z,49.70
2022-11-30T22:41:53.066Z,49.88
2022-11-30T22:44:22.269Z,50.17
2022-11-30T22:46:49.131Z,47.97
2022-11-30T22:49:21.327Z,49.10
2022-11-30T22:51:49.877Z,48.55
2022-11-30T22:54:17.250Z,53.50
2022-11-30T22:56:46.216Z,50.72
2022-11-30T22:59:14.023Z,52.13
2022-11-30T23:01:49.700Z,52.70
2022-11-30T23:04:20.635Z,47.80
2022-11-30T23:06:49.582Z,48.15
2022-11-30T23:09:20.625Z,47.83
2022-11-30T23:11:48.205Z,50.03
2022-11-30T23:14:16.248Z,47.97
2022-11-30T23:16:43.961Z,51.55
2022-11-30T23:19:12.924Z,53.05
2022-11-30T23:21:44.766Z,47.95
2022-11-30T23:24:17.470Z,52.50
2022-11-30T23:26:44.368Z,47.60
2022-11-30T23:29:15.142Z,46.72
2022-11-30T23:31:45.166Z,53.60
2022-11-30T23:34:16.722Z,49.78
2022-11-30T23:36:43.826Z,56.67
2022-11-30T23:39:14.793Z,55.35
2022-11-30T23:41:42.417Z,53.78
2022-11-30T23:44:10.257Z,52.20
2022-11-30T23:46:37.665Z,52.40
2022-11-30T23:49:04.778Z,53.72
2022-11-30T23:51:31.790Z,47.33
2022-11-30T23:53:58.734Z,47.90
2022-11-30T23:56:25.517Z,52.15
2022-11-30T23:58:53.094Z,47.38
